This is the latest recevied weather packets stored in our database for station/object DM1RG-6. If no packets are shown the sender has not sent any weather packets the latest 1 day(s).
| Time | Temp. | Humidity | Pressure | Rain* | Wind** | Luminosity | Snow |
|---|---|---|---|---|---|---|---|
| 1836274497 | 16.67° C | 81% | 1017.6 hPa | 0 mm | 1.79 m/s, 234° | - | - |
| 1836274468 | 16.67° C | 80% | 1017.6 hPa | 0 mm | 2.24 m/s, 242° | - | - |
| 1836274137 | 16.67° C | 83% | 1017.7 hPa | 0 mm | 1.79 m/s, 233° | - | - |
| 1836274108 | 16.67° C | 80% | 1017.6 hPa | 0 mm | 2.24 m/s, 237° | - | - |
| 1778022004 | 12.78° C | 97% | 1006.4 hPa | 1.27 mm | 3.13 m/s, 44° | - | - |
| 1778021643 | 12.78° C | 96% | 1006.3 hPa | 1.27 mm | 2.24 m/s, 54° | - | - |
| 1778021283 | 12.78° C | 96% | 1006.3 hPa | 1.02 mm | 1.79 m/s, 38° | - | - |
| 1778020924 | 12.78° C | 96% | 1006.3 hPa | 1.27 mm | 1.79 m/s, 37° | - | - |
| 1778020563 | 12.78° C | 95% | 1006.3 hPa | 1.27 mm | 2.24 m/s, 47° | - | - |
| 1778020203 | 13.33° C | 95% | 1006.4 hPa | 1.27 mm | 2.68 m/s, 44° | - | - |
| 1778019844 | 13.33° C | 94% | 1006.4 hPa | 1.02 mm | 2.68 m/s, 47° | - | - |
| 1778019483 | 13.33° C | 94% | 1006.4 hPa | 1.02 mm | 2.24 m/s, 47° | - | - |
| 1778019123 | 13.33° C | 94% | 1006.5 hPa | 0.51 mm | 2.68 m/s, 46° | - | - |
| 1778018763 | 13.33° C | 93% | 1006.4 hPa | 0.51 mm | 3.13 m/s, 48° | - | - |
| 1778018404 | 13.89° C | 93% | 1006.5 hPa | 0.25 mm | 3.58 m/s, 40° | - | - |
| 1778018043 | 13.89° C | 92% | 1006.2 hPa | 0.25 mm | 3.58 m/s, 28° | - | - |
| 1778017683 | 13.89° C | 91% | 1006.3 hPa | 0.25 mm | 3.13 m/s, 41° | - | - |
| 1778017323 | 14.44° C | 90% | 1006 hPa | 0 mm | 3.13 m/s, 51° | - | - |
| 1778016963 | 14.44° C | 90% | 1006.3 hPa | 0 mm | 3.13 m/s, 42° | - | - |
| 1778016603 | 14.44° C | 90% | 1006.1 hPa | 0 mm | 2.68 m/s, 42° | - | - |
| 1778016244 | 14.44° C | 90% | 1006.2 hPa | 0 mm | 2.68 m/s, 53° | - | - |
| 1778015883 | 14.44° C | 89% | 1006.1 hPa | 0 mm | 3.13 m/s, 65° | - | - |
| 1778015523 | 14.44° C | 89% | 1006.2 hPa | 0 mm | 3.58 m/s, 58° | - | - |
| 1778015163 | 15° C | 89% | 1006.3 hPa | 0 mm | 3.58 m/s, 50° | - | - |
| 1778014804 | 15° C | 89% | 1006.1 hPa | 0 mm | 2.68 m/s, 42° | - | - |
* Rain latest hour (hover to see other rain measurements)
** Current wind speed in m/s (hover to see current wind gust speed)